Time,TemperatureF,DewpointF,PressureIn,WindDirection,WindDirectionDegrees,WindSpeedMPH,WindSpeedGustMPH,Humidity,HourlyPrecipIn,Conditions,Clouds,dailyrainin,SolarRadiationWatts/m^2,SoftwareType,DateUTC
2013-11-02 00:12:00,43.2,39.0,29.79,NNW,328,6.0,7.0,85,0.00,,,0.00,0,weatherlink.com 1.10,2013-11-02 05:12:00,
2013-11-02 00:27:00,43.6,39.0,29.79,NNW,332,3.0,9.0,85,0.00,,,0.00,0,weatherlink.com 1.10,2013-11-02 05:27:00,
2013-11-02 00:42:00,43.6,39.0,29.80,NNW,338,7.0,9.0,85,0.00,,,0.00,0,weatherlink.com 1.10,2013-11-02 05:42:00,
2013-11-02 00:57:00,43.5,39.0,29.81,NNW,343,3.0,9.0,85,0.00,,,0.00,0,weatherlink.com 1.10,2013-11-02 05:57:00,
2013-11-02 01:12:00,43.0,39.0,29.82,North,359,5.0,8.0,85,0.00,,,0.00,0,weatherlink.com 1.10,2013-11-02 06:12:00,
2013-11-02 01:27:00,42.6,39.0,29.82,North,360,6.0,9.0,86,0.00,,,0.00,0,weatherlink.com 1.10,2013-11-02 06:27:00,
2013-11-02 01:42:00,42.6,39.0,29.83,NNW,338,7.0,11.0,86,0.00,,,0.00,0,weatherlink.com 1.10,2013-11-02 06:42:00,
2013-11-02 01:57:00,42.3,39.0,29.83,NNW,340,4.0,11.0,87,0.00,,,0.00,0,weatherlink.com 1.10,2013-11-02 06:57:00,
2013-11-02 02:12:00,42.0,38.0,29.84,North,357,6.0,10.0,87,0.00,,,0.00,0,weatherlink.com 1.10,2013-11-02 07:12:00,
2013-11-02 02:27:00,41.5,38.0,29.84,North,9,6.0,11.0,88,0.00,,,0.00,0,weatherlink.com 1.10,2013-11-02 07:27:00,
2013-11-02 02:42:00,41.4,38.0,29.85,NNW,340,5.0,11.0,88,0.00,,,0.00,0,weatherlink.com 1.10,2013-11-02 07:42:00,
2013-11-02 02:57:00,41.0,38.0,29.85,NNE,18,6.0,11.0,89,0.00,,,0.00,0,weatherlink.com 1.10,2013-11-02 07:57:00,
2013-11-02 03:13:00,40.7,38.0,29.85,NNE,18,4.0,10.0,89,0.00,,,0.00,0,weatherlink.com 1.10,2013-11-02 08:13:00,
2013-11-02 03:28:00,40.6,38.0,29.86,NNE,28,7.0,11.0,89,0.00,,,0.00,0,weatherlink.com 1.10,2013-11-02 08:28:00,
2013-11-02 03:43:00,40.3,37.0,29.86,North,7,7.0,11.0,88,0.00,,,0.00,0,weatherlink.com 1.10,2013-11-02 08:43:00,
2013-11-02 03:58:00,39.7,37.0,29.87,North,1,5.0,12.0,88,0.00,,,0.00,0,weatherlink.com 1.10,2013-11-02 08:58:00,
2013-11-02 04:13:00,39.4,36.0,29.87,NNE,20,12.0,12.0,87,0.00,,,0.00,0,weatherlink.com 1.10,2013-11-02 09:13:00,
2013-11-02 04:28:00,39.1,35.0,29.88,NNE,20,10.0,13.0,85,0.00,,,0.00,0,weatherlink.com 1.10,2013-11-02 09:28:00,
2013-11-02 04:43:00,38.6,35.0,29.89,North,1,4.0,9.0,85,0.00,,,0.00,0,weatherlink.com 1.10,2013-11-02 09:43:00,
2013-11-02 04:58:00,38.2,34.0,29.90,North,3,6.0,11.0,86,0.00,,,0.00,0,weatherlink.com 1.10,2013-11-02 09:58:00,
2013-11-02 05:13:00,37.8,34.0,29.91,North,1,5.0,13.0,86,0.00,,,0.00,0,weatherlink.com 1.10,2013-11-02 10:13:00,
2013-11-02 05:28:00,37.4,34.0,29.91,North,353,7.0,11.0,86,0.00,,,0.00,0,weatherlink.com 1.10,2013-11-02 10:28:00,
2013-11-02 05:43:00,37.0,33.0,29.91,North,360,5.0,11.0,85,0.00,,,0.00,0,weatherlink.com 1.10,2013-11-02 10:43:00,
2013-11-02 05:58:00,36.8,33.0,29.92,North,360,3.0,11.0,86,0.00,,,0.00,0,weatherlink.com 1.10,2013-11-02 10:58:00,
2013-11-02 06:13:00,36.5,33.0,29.93,North,360,5.0,11.0,86,0.00,,,0.00,0,weatherlink.com 1.10,2013-11-02 11:13:00,
2013-11-02 06:28:00,36.6,33.0,29.94,North,10,6.0,11.0,86,0.00,,,0.00,0,weatherlink.com 1.10,2013-11-02 11:28:00,
2013-11-02 06:43:00,36.4,32.0,29.95,NNE,21,5.0,9.0,85,0.00,,,0.00,0,weatherlink.com 1.10,2013-11-02 11:43:00,
2013-11-02 06:58:00,36.3,32.0,29.95,NNW,347,7.0,11.0,85,0.00,,,0.00,0,weatherlink.com 1.10,2013-11-02 11:58:00,
2013-11-02 07:13:00,36.2,32.0,29.96,NNE,17,4.0,9.0,86,0.00,,,0.00,0,weatherlink.com 1.10,2013-11-02 12:13:00,
2013-11-02 07:28:00,36.4,33.0,29.96,North,357,9.0,10.0,86,0.00,,,0.00,0,weatherlink.com 1.10,2013-11-02 12:28:00,
2013-11-02 07:43:00,36.7,33.0,29.97,NW,307,6.0,10.0,86,0.00,,,0.00,5,weatherlink.com 1.10,2013-11-02 12:43:00,
2013-11-02 07:58:00,37.0,33.0,29.98,North,359,6.0,11.0,85,0.00,,,0.00,16,weatherlink.com 1.10,2013-11-02 12:58:00,
2013-11-02 08:13:00,37.4,33.0,29.98,North,7,6.0,10.0,85,0.00,,,0.00,9,weatherlink.com 1.10,2013-11-02 13:13:00,
2013-11-02 08:28:00,37.7,34.0,29.99,NW,319,4.0,9.0,85,0.00,,,0.00,18,weatherlink.com 1.10,2013-11-02 13:28:00,
2013-11-02 08:43:00,38.1,34.0,30.00,North,360,2.0,10.0,85,0.00,,,0.00,33,weatherlink.com 1.10,2013-11-02 13:43:00,
2013-11-02 08:59:00,38.8,35.0,30.01,North,6,5.0,10.0,85,0.00,,,0.00,54,weatherlink.com 1.10,2013-11-02 13:59:00,
2013-11-02 09:14:00,39.3,36.0,30.01,North,359,7.0,10.0,86,0.00,,,0.00,62,weatherlink.com 1.10,2013-11-02 14:14:00,
2013-11-02 09:29:00,40.1,36.0,30.01,North,357,9.0,12.0,86,0.00,,,0.00,267,weatherlink.com 1.10,2013-11-02 14:29:00,
2013-11-02 09:44:00,41.5,37.0,30.02,NNE,22,7.0,13.0,85,0.00,,,0.00,301,weatherlink.com 1.10,2013-11-02 14:44:00,
2013-11-02 09:59:00,42.2,37.0,30.02,North,360,9.0,18.0,82,0.00,,,0.00,352,weatherlink.com 1.10,2013-11-02 14:59:00,
2013-11-02 10:14:00,43.0,37.0,30.03,NNW,340,8.0,14.0,78,0.00,,,0.00,380,weatherlink.com 1.10,2013-11-02 15:14:00,
2013-11-02 10:29:00,43.4,36.0,30.03,NNW,346,13.0,21.0,76,0.00,,,0.00,408,weatherlink.com 1.10,2013-11-02 15:29:00,
2013-11-02 10:44:00,43.9,36.0,30.03,NW,320,6.0,18.0,73,0.00,,,0.00,445,weatherlink.com 1.10,2013-11-02 15:44:00,
2013-11-02 10:59:00,44.5,36.0,30.03,North,355,10.0,16.0,72,0.00,,,0.00,522,weatherlink.com 1.10,2013-11-02 15:59:00,
2013-11-02 11:14:00,44.7,36.0,30.03,North,355,6.0,20.0,72,0.00,,,0.00,127,weatherlink.com 1.10,2013-11-02 16:14:00,
2013-11-02 11:29:00,45.3,37.0,30.04,North,357,7.0,16.0,72,0.00,,,0.00,554,weatherlink.com 1.10,2013-11-02 16:29:00,
2013-11-02 11:44:00,45.6,36.0,30.04,NNW,338,11.0,18.0,69,0.00,,,0.00,570,weatherlink.com 1.10,2013-11-02 16:44:00,
2013-11-02 11:59:00,45.6,37.0,30.04,North,356,16.0,17.0,71,0.00,,,0.00,585,weatherlink.com 1.10,2013-11-02 16:59:00,
2013-11-02 12:14:00,46.3,37.0,30.04,North,359,9.0,19.0,69,0.00,,,0.00,677,weatherlink.com 1.10,2013-11-02 17:14:00,
2013-11-02 12:29:00,47.2,36.0,30.04,North,354,10.0,19.0,66,0.00,,,0.00,598,weatherlink.com 1.10,2013-11-02 17:29:00,
2013-11-02 12:44:00,47.6,36.0,30.04,North,354,7.0,17.0,64,0.00,,,0.00,599,weatherlink.com 1.10,2013-11-02 17:44:00,
2013-11-02 12:59:00,48.2,36.0,30.04,North,349,14.0,22.0,63,0.00,,,0.00,613,weatherlink.com 1.10,2013-11-02 17:59:00,
2013-11-02 13:14:00,48.3,35.0,30.04,North,360,11.0,20.0,60,0.00,,,0.00,596,weatherlink.com 1.10,2013-11-02 18:14:00,
2013-11-02 13:29:00,48.5,35.0,30.04,North,6,10.0,22.0,61,0.00,,,0.00,575,weatherlink.com 1.10,2013-11-02 18:29:00,
2013-11-02 13:44:00,48.8,36.0,30.04,North,6,15.0,18.0,62,0.00,,,0.00,489,weatherlink.com 1.10,2013-11-02 18:44:00,
2013-11-02 13:59:00,49.0,35.0,30.04,NE,44,10.0,21.0,58,0.00,,,0.00,536,weatherlink.com 1.10,2013-11-02 18:59:00,
2013-11-02 14:15:00,49.4,35.0,30.04,North,360,11.0,17.0,59,0.00,,,0.00,520,weatherlink.com 1.10,2013-11-02 19:15:00,
2013-11-02 14:30:00,50.0,35.0,30.04,NE,41,9.0,21.0,56,0.00,,,0.00,529,weatherlink.com 1.10,2013-11-02 19:30:00,
2013-11-02 14:45:00,50.0,34.0,30.04,NNW,339,9.0,20.0,55,0.00,,,0.00,471,weatherlink.com 1.10,2013-11-02 19:45:00,
2013-11-02 15:00:00,50.2,34.0,30.04,North,4,14.0,22.0,54,0.00,,,0.00,446,weatherlink.com 1.10,2013-11-02 20:00:00,
2013-11-02 15:15:00,50.1,33.0,30.05,NNW,339,12.0,23.0,53,0.00,,,0.00,415,weatherlink.com 1.10,2013-11-02 20:15:00,
2013-11-02 15:30:00,50.2,33.0,30.05,NNE,15,10.0,21.0,52,0.00,,,0.00,376,weatherlink.com 1.10,2013-11-02 20:30:00,
2013-11-02 15:45:00,50.5,32.0,30.05,North,7,14.0,19.0,50,0.00,,,0.00,350,weatherlink.com 1.10,2013-11-02 20:45:00,
2013-11-02 16:00:00,50.4,33.0,30.06,North,360,10.0,18.0,51,0.00,,,0.00,311,weatherlink.com 1.10,2013-11-02 21:00:00,
2013-11-02 16:15:00,50.5,33.0,30.06,North,4,10.0,20.0,51,0.00,,,0.00,272,weatherlink.com 1.10,2013-11-02 21:15:00,
2013-11-02 16:30:00,50.3,32.0,30.07,North,359,11.0,16.0,50,0.00,,,0.00,213,weatherlink.com 1.10,2013-11-02 21:30:00,
2013-11-02 16:45:00,50.2,32.0,30.07,NNE,25,10.0,14.0,50,0.00,,,0.00,158,weatherlink.com 1.10,2013-11-02 21:45:00,
2013-11-02 17:00:00,50.1,32.0,30.07,NNW,346,5.0,13.0,50,0.00,,,0.00,113,weatherlink.com 1.10,2013-11-02 22:00:00,
2013-11-02 17:15:00,49.7,33.0,30.08,NE,45,4.0,11.0,52,0.00,,,0.00,65,weatherlink.com 1.10,2013-11-02 22:15:00,
2013-11-02 17:30:00,49.2,32.0,30.08,North,360,4.0,10.0,52,0.00,,,0.00,32,weatherlink.com 1.10,2013-11-02 22:30:00,
2013-11-02 17:45:00,48.4,32.0,30.08,NNE,23,2.0,7.0,54,0.00,,,0.00,12,weatherlink.com 1.10,2013-11-02 22:45:00,
2013-11-02 18:00:00,47.4,32.0,30.09,NNW,348,6.0,6.0,55,0.00,,,0.00,0,weatherlink.com 1.10,2013-11-02 23:00:00,
2013-11-02 18:15:00,46.5,31.0,30.09,NNE,12,5.0,7.0,55,0.00,,,0.00,0,weatherlink.com 1.10,2013-11-02 23:15:00,
2013-11-02 18:30:00,45.7,31.0,30.09,NNE,18,2.0,5.0,57,0.00,,,0.00,0,weatherlink.com 1.10,2013-11-02 23:30:00,
2013-11-02 18:45:00,45.0,31.0,30.10,North,1,1.0,4.0,58,0.00,,,0.00,0,weatherlink.com 1.10,2013-11-02 23:45:00,
2013-11-02 19:00:00,44.4,31.0,30.11,North,2,1.0,4.0,59,0.00,,,0.00,0,weatherlink.com 1.10,2013-11-03 00:00:00,
2013-11-02 19:15:00,43.9,31.0,30.11,North,359,1.0,4.0,60,0.00,,,0.00,0,weatherlink.com 1.10,2013-11-03 00:15:00,
2013-11-02 19:30:00,43.5,30.0,30.12,North,3,0.0,2.0,60,0.00,,,0.00,0,weatherlink.com 1.10,2013-11-03 00:30:00,
2013-11-02 19:45:00,42.9,31.0,30.12,North,3,0.0,1.0,62,0.00,,,0.00,0,weatherlink.com 1.10,2013-11-03 00:45:00,
2013-11-02 20:00:00,42.1,30.0,30.12,North,3,0.0,1.0,63,0.00,,,0.00,0,weatherlink.com 1.10,2013-11-03 01:00:00,
2013-11-02 20:15:00,41.1,30.0,30.12,North,3,2.0,2.0,65,0.00,,,0.00,0,weatherlink.com 1.10,2013-11-03 01:15:00,
2013-11-02 20:30:00,40.2,30.0,30.12,North,3,0.0,1.0,67,0.00,,,0.00,0,weatherlink.com 1.10,2013-11-03 01:30:00,
2013-11-02 20:45:00,39.6,30.0,30.13,North,4,0.0,1.0,68,0.00,,,0.00,0,weatherlink.com 1.10,2013-11-03 01:45:00,
2013-11-02 21:00:00,39.3,30.0,30.13,North,4,0.0,2.0,70,0.00,,,0.00,0,weatherlink.com 1.10,2013-11-03 02:00:00,
2013-11-02 21:15:00,39.0,30.0,30.13,North,3,0.0,1.0,70,0.00,,,0.00,0,weatherlink.com 1.10,2013-11-03 02:15:00,
2013-11-02 21:30:00,37.8,30.0,30.14,North,3,0.0,2.0,74,0.00,,,0.00,0,weatherlink.com 1.10,2013-11-03 02:30:00,
2013-11-02 21:45:00,37.3,30.0,30.14,North,4,0.0,0.0,75,0.00,,,0.00,0,weatherlink.com 1.10,2013-11-03 02:45:00,
2013-11-02 22:00:00,36.8,30.0,30.14,North,3,0.0,0.0,75,0.00,,,0.00,0,weatherlink.com 1.10,2013-11-03 03:00:00,
2013-11-02 22:15:00,36.3,29.0,30.14,North,4,0.0,0.0,76,0.00,,,0.00,0,weatherlink.com 1.10,2013-11-03 03:15:00,
2013-11-02 22:30:00,35.7,29.0,30.14,North,4,0.0,0.0,77,0.00,,,0.00,0,weatherlink.com 1.10,2013-11-03 03:30:00,
2013-11-02 22:45:00,35.0,29.0,30.14,North,3,0.0,0.0,78,0.00,,,0.00,0,weatherlink.com 1.10,2013-11-03 03:45:00,
2013-11-02 23:00:00,34.5,29.0,30.14,North,3,0.0,1.0,80,0.00,,,0.00,0,weatherlink.com 1.10,2013-11-03 04:00:00,
2013-11-02 23:15:00,34.4,29.0,30.14,North,3,0.0,2.0,81,0.00,,,0.00,0,weatherlink.com 1.10,2013-11-03 04:15:00,
2013-11-02 23:30:00,34.3,29.0,30.15,North,4,0.0,1.0,82,0.00,,,0.00,0,weatherlink.com 1.10,2013-11-03 04:30:00,
2013-11-02 23:45:00,33.9,29.0,30.15,North,3,0.0,1.0,83,0.00,,,0.00,0,weatherlink.com 1.10,2013-11-03 04:45:00,